createdAt,value
2022-10-05T00:03:49.312Z,100276.06
2022-10-05T00:07:52.416Z,100275.56
2022-10-05T00:11:54.150Z,100272.59
2022-10-05T00:16:22.192Z,100281.22
2022-10-05T00:20:26.713Z,100275.22
2022-10-05T00:24:29.944Z,100277.03
2022-10-05T00:28:31.695Z,100268.66
2022-10-05T00:32:33.358Z,100270.44
2022-10-05T00:36:35.016Z,100267.56
2022-10-05T00:40:37.477Z,100265.53
2022-10-05T00:44:47.912Z,100254.38
2022-10-05T00:49:06.931Z,100241.06
2022-10-05T00:53:34.916Z,100246.44
2022-10-05T00:58:06.882Z,100232.50
2022-10-05T01:02:17.607Z,100241.50
2022-10-05T01:06:35.887Z,100238.38
2022-10-05T01:10:55.906Z,100214.09
2022-10-05T01:15:08.398Z,100210.72
2022-10-05T01:19:36.385Z,100218.38
2022-10-05T01:23:58.103Z,100210.56
2022-10-05T01:28:07.286Z,100231.28
2022-10-05T01:32:20.587Z,100221.47
2022-10-05T01:36:38.767Z,100214.19
2022-10-05T01:40:56.408Z,100219.59
2022-10-05T01:45:23.340Z,100224.56
2022-10-05T01:49:39.036Z,100239.28
2022-10-05T01:53:58.144Z,100239.66
2022-10-05T01:58:41.325Z,100242.16
2022-10-05T02:02:56.117Z,100237.50
2022-10-05T02:07:01.839Z,100226.72
2022-10-05T02:11:07.884Z,100219.41
2022-10-05T02:15:14.578Z,100209.00
2022-10-05T02:19:35.398Z,100194.13
2022-10-05T02:23:42.907Z,100176.16
2022-10-05T02:28:08.138Z,100168.38
2022-10-05T02:32:23.956Z,100163.13
2022-10-05T02:36:36.403Z,100166.44
2022-10-05T02:41:02.960Z,100176.63
2022-10-05T02:45:16.094Z,100172.81
2022-10-05T02:49:23.196Z,100168.84
2022-10-05T02:53:45.432Z,100159.75
2022-10-05T02:58:03.621Z,100151.72
2022-10-05T03:02:17.107Z,100139.03
2022-10-05T03:07:08.847Z,100128.25
2022-10-05T03:11:35.235Z,100128.25
2022-10-05T03:15:53.656Z,100132.06
2022-10-05T03:20:36.663Z,100139.28
2022-10-05T03:25:13.804Z,100143.00
2022-10-05T03:29:59.667Z,100145.16
2022-10-05T03:34:16.997Z,100155.81
2022-10-05T03:38:25.863Z,100162.81
2022-10-05T03:42:57.882Z,100171.00
2022-10-05T03:47:08.934Z,100177.41
2022-10-05T03:51:32.435Z,100183.53
2022-10-05T03:55:47.723Z,100184.94
2022-10-05T04:00:01.046Z,100178.72
2022-10-05T04:04:11.398Z,100181.81
2022-10-05T04:08:39.098Z,100178.78
2022-10-05T04:12:48.481Z,100177.81
2022-10-05T04:16:59.697Z,100180.06
2022-10-05T04:21:06.879Z,100182.31
2022-10-05T04:25:23.885Z,100182.16
2022-10-05T04:29:39.754Z,100181.78
2022-10-05T04:33:48.173Z,100180.81
2022-10-05T04:37:55.740Z,100179.59
2022-10-05T04:42:30.527Z,100182.56
2022-10-05T04:46:38.386Z,100180.66
2022-10-05T04:50:49.317Z,100185.31
2022-10-05T04:55:07.498Z,100195.22
2022-10-05T04:59:56.793Z,100193.56
2022-10-05T05:04:36.545Z,100199.06
2022-10-05T05:09:34.877Z,100196.31
2022-10-05T05:13:43.809Z,100205.78
2022-10-05T05:17:59.265Z,100217.53
2022-10-05T05:22:19.026Z,100220.72
2022-10-05T05:26:51.967Z,100220.97
2022-10-05T05:31:05.354Z,100225.56
2022-10-05T05:35:44.435Z,100237.94
2022-10-05T05:39:53.621Z,100241.66
2022-10-05T05:44:42.041Z,100247.53
2022-10-05T05:48:47.386Z,100247.75
2022-10-05T05:52:58.740Z,100263.22
2022-10-05T05:57:10.924Z,100262.28
2022-10-05T06:01:33.315Z,100260.09
2022-10-05T06:05:42.062Z,100257.72
2022-10-05T06:09:51.611Z,100253.28
2022-10-05T06:14:13.164Z,100249.59
2022-10-05T06:18:19.505Z,100251.19
2022-10-05T06:22:35.971Z,100245.56
2022-10-05T06:27:09.807Z,100253.88
2022-10-05T06:31:24.252Z,100239.63
2022-10-05T06:36:06.933Z,100246.47
2022-10-05T06:40:32.287Z,100246.34
2022-10-05T06:44:49.362Z,100234.38
2022-10-05T06:49:29.481Z,100238.56
2022-10-05T06:54:28.821Z,100241.19
2022-10-05T06:58:46.760Z,100237.59
2022-10-05T07:03:06.584Z,100249.94
2022-10-05T07:07:20.847Z,100241.31
2022-10-05T07:11:37.599Z,100253.06
2022-10-05T07:15:45.376Z,100236.97
2022-10-05T07:20:03.802Z,100238.06
2022-10-05T07:24:16.134Z,100246.44
2022-10-05T07:28:20.976Z,100238.88
2022-10-05T07:32:25.583Z,100244.84
2022-10-05T07:37:03.264Z,100243.09
2022-10-05T07:41:07.490Z,100239.16
2022-10-05T07:45:16.117Z,100230.91
2022-10-05T07:49:22.794Z,100238.59
2022-10-05T07:53:35.226Z,100241.69
2022-10-05T07:58:13.108Z,100234.94
2022-10-05T08:02:33.188Z,100242.63
2022-10-05T08:06:44.589Z,100249.88
2022-10-05T08:11:01.846Z,100238.06
2022-10-05T08:15:10.059Z,100238.69
2022-10-05T08:19:33.955Z,100235.44
2022-10-05T08:23:46.699Z,100239.50
2022-10-05T08:28:05.129Z,100239.66
2022-10-05T08:32:21.654Z,100225.94
2022-10-05T08:36:45.218Z,100224.25
2022-10-05T08:40:56.326Z,100230.38
2022-10-05T08:45:05.162Z,100227.59
2022-10-05T08:49:51.741Z,100217.88
2022-10-05T08:54:28.743Z,100214.53
2022-10-05T08:58:51.676Z,100216.75
2022-10-05T09:03:19.273Z,100212.28
2022-10-05T09:07:44.805Z,100212.28
2022-10-05T09:12:26.103Z,100220.31
2022-10-05T09:16:55.804Z,100220.50
2022-10-05T09:21:01.157Z,100227.72
2022-10-05T09:25:35.362Z,100213.13
2022-10-05T09:30:14.146Z,100219.53
2022-10-05T09:34:41.227Z,100217.19
2022-10-05T09:39:19.168Z,100210.47
2022-10-05T09:43:35.530Z,100202.00
2022-10-05T09:47:47.401Z,100207.44
2022-10-05T09:52:13.977Z,100205.78
2022-10-05T09:56:51.893Z,100193.03
2022-10-05T10:01:29.192Z,100193.78
2022-10-05T10:05:32.230Z,100182.19
2022-10-05T10:10:04.900Z,100185.16
2022-10-05T10:14:20.030Z,100184.31
2022-10-05T10:18:40.220Z,100183.66
2022-10-05T10:23:02.924Z,100190.47
2022-10-05T10:27:13.260Z,100190.66
2022-10-05T10:31:41.607Z,100185.47
2022-10-05T10:36:07.178Z,100184.75
2022-10-05T10:40:21.422Z,100187.03
2022-10-05T10:44:59.834Z,100179.09
2022-10-05T10:49:35.748Z,100178.47
2022-10-05T10:53:57.575Z,100165.94
2022-10-05T10:58:55.966Z,100161.50
2022-10-05T11:03:28.280Z,100166.78
2022-10-05T11:07:54.126Z,100156.81
2022-10-05T11:12:37.219Z,100155.84
2022-10-05T11:17:17.182Z,100153.25
2022-10-05T11:21:43.824Z,100154.72
2022-10-05T11:26:12.600Z,100155.75
2022-10-05T11:30:23.085Z,100146.34
2022-10-05T11:34:43.867Z,100140.69
2022-10-05T11:38:51.267Z,100131.88
2022-10-05T11:43:06.984Z,100137.88
2022-10-05T11:47:22.598Z,100143.00
2022-10-05T11:51:34.179Z,100135.78
2022-10-05T11:56:09.350Z,100125.13
2022-10-05T12:00:40.663Z,100116.34
2022-10-05T12:05:07.927Z,100105.56
2022-10-05T12:09:21.346Z,100098.50
2022-10-05T12:13:43.525Z,100084.97
2022-10-05T12:17:52.314Z,100090.13
2022-10-05T12:22:04.239Z,100085.91
2022-10-05T12:26:14.948Z,100086.31
2022-10-05T12:30:16.727Z,100083.72
2022-10-05T12:34:37.992Z,100088.31
2022-10-05T12:38:51.759Z,100075.69
2022-10-05T12:43:15.201Z,100084.91
2022-10-05T12:47:32.562Z,100080.88
2022-10-05T12:51:37.876Z,100072.28
2022-10-05T12:55:46.339Z,100060.97
2022-10-05T13:00:08.245Z,100059.13
2022-10-05T13:04:46.958Z,100064.63
2022-10-05T13:09:03.704Z,100049.59
2022-10-05T13:13:39.489Z,100050.09
2022-10-05T13:17:58.511Z,100044.91
2022-10-05T13:22:25.537Z,100041.09
2022-10-05T13:26:34.784Z,100042.38
2022-10-05T13:30:40.178Z,100038.97
2022-10-05T13:34:47.491Z,100042.09
2022-10-05T13:38:58.688Z,100033.16
2022-10-05T13:43:06.771Z,100039.09
2022-10-05T13:47:27.916Z,100040.00
2022-10-05T13:51:34.498Z,100035.63
2022-10-05T13:55:49.948Z,100026.28
2022-10-05T13:59:58.211Z,100032.81
2022-10-05T14:04:22.218Z,100021.38
2022-10-05T14:08:33.703Z,100025.19
2022-10-05T14:12:44.318Z,100014.94
2022-10-05T14:16:53.816Z,100017.22
2022-10-05T14:21:24.104Z,100019.34
2022-10-05T14:25:27.135Z,100011.25
2022-10-05T14:29:37.483Z,100004.34
2022-10-05T14:33:39.471Z,100001.78
2022-10-05T14:37:58.204Z,100002.66
2022-10-05T14:42:13.755Z,100002.53
2022-10-05T14:46:23.102Z,99988.75
2022-10-05T14:50:31.497Z,99992.50
2022-10-05T14:54:56.063Z,99976.44
2022-10-05T14:59:14.100Z,99983.72
2022-10-05T15:03:40.574Z,99967.66
2022-10-05T15:07:45.894Z,99960.88
2022-10-05T15:11:54.979Z,99959.75
2022-10-05T15:16:18.400Z,99956.44
2022-10-05T15:20:29.166Z,99959.44
2022-10-05T15:24:45.557Z,99956.72
2022-10-05T15:28:56.315Z,99952.22
2022-10-05T15:33:36.846Z,99940.31
2022-10-05T15:37:44.862Z,99942.13
2022-10-05T15:42:02.312Z,99924.88
2022-10-05T15:46:15.892Z,99924.56
2022-10-05T15:50:35.718Z,99916.13
2022-10-05T15:54:55.731Z,99912.63
2022-10-05T15:59:07.346Z,99910.34
2022-10-05T16:03:24.092Z,99911.41
2022-10-05T16:07:54.235Z,99920.31
2022-10-05T16:12:13.769Z,99921.91
2022-10-05T16:16:27.036Z,99916.72
2022-10-05T16:20:55.982Z,99924.09
2022-10-05T16:25:09.403Z,99928.66
2022-10-05T16:29:29.529Z,99934.72
2022-10-05T16:33:54.377Z,99942.03
2022-10-05T16:38:26.882Z,99948.31
2022-10-05T16:42:42.138Z,99949.19
2022-10-05T16:46:57.785Z,99948.38
2022-10-05T16:51:31.351Z,99952.59
2022-10-05T16:55:40.786Z,99952.81
2022-10-05T17:00:08.899Z,99957.59
2022-10-05T17:04:18.523Z,99959.03
2022-10-05T17:08:36.751Z,99961.00
2022-10-05T17:12:55.022Z,99976.44
2022-10-05T17:17:02.103Z,99983.06
2022-10-05T17:21:22.476Z,99984.69
2022-10-05T17:25:47.055Z,99990.56
2022-10-05T17:29:52.333Z,99991.84
2022-10-05T17:34:00.123Z,100010.97
2022-10-05T17:38:20.184Z,100003.81
2022-10-05T17:42:30.649Z,100022.09
2022-10-05T17:46:45.655Z,100024.75
2022-10-05T17:51:07.749Z,100039.31
2022-10-05T17:55:38.331Z,100038.56
2022-10-05T17:59:44.555Z,100052.97
2022-10-05T18:03:51.568Z,100065.66
2022-10-05T18:08:11.639Z,100068.28
2022-10-05T18:12:18.011Z,100074.00
2022-10-05T18:16:58.251Z,100076.00
2022-10-05T18:21:28.677Z,100085.88
2022-10-05T18:25:52.089Z,100098.53
2022-10-05T18:30:20.541Z,100092.81
2022-10-05T18:34:30.065Z,100112.97
2022-10-05T18:38:40.554Z,100117.22
2022-10-05T18:43:20.518Z,100117.28
2022-10-05T18:47:33.495Z,100119.31
2022-10-05T18:51:34.941Z,100123.78
2022-10-05T18:55:45.682Z,100125.47
2022-10-05T19:00:02.423Z,100133.84
2022-10-05T19:04:17.776Z,100139.66
2022-10-05T19:08:31.045Z,100136.03
2022-10-05T19:12:48.503Z,100148.84
2022-10-05T19:17:23.251Z,100160.84
2022-10-05T19:21:35.462Z,100170.00
2022-10-05T19:26:02.621Z,100168.03
2022-10-05T19:30:23.614Z,100178.63
2022-10-05T19:34:45.836Z,100178.41
2022-10-05T19:39:03.991Z,100186.84
2022-10-05T19:43:20.736Z,100196.03
2022-10-05T19:47:31.284Z,100197.44
2022-10-05T19:51:37.062Z,100206.38
2022-10-05T19:55:50.577Z,100205.28
2022-10-05T19:59:56.840Z,100217.59
2022-10-05T20:03:58.477Z,100221.28
2022-10-05T20:08:01.244Z,100226.53
2022-10-05T20:12:02.843Z,100225.75
2022-10-05T20:16:39.055Z,100229.41
2022-10-05T20:20:45.759Z,100226.97
2022-10-05T20:24:52.740Z,100235.63
2022-10-05T20:28:54.341Z,100243.41
2022-10-05T20:32:58.549Z,100249.00
2022-10-05T20:37:00.155Z,100262.09
2022-10-05T20:41:01.816Z,100269.06
2022-10-05T20:45:04.347Z,100265.19
2022-10-05T20:49:08.306Z,100276.31
2022-10-05T20:53:12.016Z,100276.31
2022-10-05T20:57:14.936Z,100287.47
2022-10-05T21:01:18.188Z,100296.91
2022-10-05T21:05:19.982Z,100291.66
2022-10-05T21:09:21.706Z,100310.59
2022-10-05T21:13:25.518Z,100320.34
2022-10-05T21:17:27.204Z,100330.69
2022-10-05T21:21:28.982Z,100339.03
2022-10-05T21:25:30.558Z,100339.31
2022-10-05T21:29:34.284Z,100335.97
2022-10-05T21:33:36.218Z,100325.41
2022-10-05T21:37:37.921Z,100328.78
2022-10-05T21:41:39.566Z,100315.97
2022-10-05T21:45:43.062Z,100324.38
2022-10-05T21:49:44.746Z,100328.81
2022-10-05T21:53:53.165Z,100342.22
2022-10-05T21:57:56.813Z,100347.78
2022-10-05T22:01:58.762Z,100362.28
2022-10-05T22:06:00.454Z,100363.97
2022-10-05T22:10:02.703Z,100360.06
2022-10-05T22:14:04.328Z,100361.75
2022-10-05T22:18:06.126Z,100367.31
2022-10-05T22:22:11.788Z,100365.38
2022-10-05T22:26:16.873Z,100362.03
2022-10-05T22:30:19.955Z,100369.00
2022-10-05T22:34:21.718Z,100364.25
2022-10-05T22:38:23.290Z,100360.06
2022-10-05T22:42:24.867Z,100372.56
2022-10-05T22:46:26.569Z,100379.50
2022-10-05T22:50:28.151Z,100377.56
2022-10-05T22:54:37.078Z,100381.44
2022-10-05T22:58:40.155Z,100381.13
2022-10-05T23:02:42.787Z,100381.66
2022-10-05T23:06:44.429Z,100389.69
2022-10-05T23:10:46.191Z,100393.31
2022-10-05T23:14:48.788Z,100408.31
2022-10-05T23:18:52.124Z,100414.41
2022-10-05T23:22:53.852Z,100418.84
2022-10-05T23:26:55.427Z,100423.00
2022-10-05T23:31:01.826Z,100416.63
2022-10-05T23:35:04.389Z,100426.34
2022-10-05T23:39:06.082Z,100429.66
2022-10-05T23:43:07.660Z,100429.41
2022-10-05T23:47:09.241Z,100428.31
2022-10-05T23:51:12.617Z,100424.16
2022-10-05T23:55:14.248Z,100446.94
2022-10-05T23:59:15.825Z,100451.09
